sensor_id;sensor_type;location;lat;lon;timestamp;pressure;altitude;pressure_sealevel;temperature;humidity
1616;BME280;801;47.982;7.810;2023-02-03T00:00:18;100164.78;;;6.33;100.00
1616;BME280;801;47.982;7.810;2023-02-03T00:02:44;100156.75;;;6.61;100.00
1616;BME280;801;47.982;7.810;2023-02-03T00:05:11;100168.25;;;6.33;100.00
1616;BME280;801;47.982;7.810;2023-02-03T00:07:39;100167.72;;;6.16;100.00
1616;BME280;801;47.982;7.810;2023-02-03T00:10:06;100171.38;;;6.37;100.00
1616;BME280;801;47.982;7.810;2023-02-03T00:12:33;100170.63;;;6.50;100.00
1616;BME280;801;47.982;7.810;2023-02-03T00:15:00;100176.09;;;6.13;100.00
1616;BME280;801;47.982;7.810;2023-02-03T00:17:26;100183.66;;;6.31;100.00
1616;BME280;801;47.982;7.810;2023-02-03T00:19:53;100194.84;;;6.20;100.00
1616;BME280;801;47.982;7.810;2023-02-03T00:22:19;100197.56;;;6.27;100.00
1616;BME280;801;47.982;7.810;2023-02-03T00:24:47;100195.66;;;6.20;100.00
1616;BME280;801;47.982;7.810;2023-02-03T00:27:13;100190.44;;;6.06;100.00
1616;BME280;801;47.982;7.810;2023-02-03T00:29:40;100197.41;;;6.28;100.00
1616;BME280;801;47.982;7.810;2023-02-03T00:32:06;100190.50;;;6.12;100.00
1616;BME280;801;47.982;7.810;2023-02-03T00:34:33;100195.81;;;6.12;100.00
1616;BME280;801;47.982;7.810;2023-02-03T00:36:59;100204.13;;;6.24;100.00
1616;BME280;801;47.982;7.810;2023-02-03T00:39:26;100197.63;;;6.33;100.00
1616;BME280;801;47.982;7.810;2023-02-03T00:41:53;100200.50;;;6.60;100.00
1616;BME280;801;47.982;7.810;2023-02-03T00:44:20;100192.19;;;6.20;100.00
1616;BME280;801;47.982;7.810;2023-02-03T00:46:46;100193.78;;;6.42;100.00
1616;BME280;801;47.982;7.810;2023-02-03T00:49:13;100186.66;;;6.21;100.00
1616;BME280;801;47.982;7.810;2023-02-03T00:51:39;100186.41;;;6.16;100.00
1616;BME280;801;47.982;7.810;2023-02-03T00:54:06;100184.75;;;6.15;100.00
1616;BME280;801;47.982;7.810;2023-02-03T00:56:32;100188.88;;;6.18;100.00
1616;BME280;801;47.982;7.810;2023-02-03T00:59:00;100188.72;;;6.48;100.00
1616;BME280;801;47.982;7.810;2023-02-03T01:01:27;100193.84;;;6.21;100.00
1616;BME280;801;47.982;7.810;2023-02-03T01:03:54;100193.22;;;6.19;100.00
1616;BME280;801;47.982;7.810;2023-02-03T01:06:20;100200.66;;;6.23;100.00
1616;BME280;801;47.982;7.810;2023-02-03T01:08:47;100196.00;;;6.32;100.00
1616;BME280;801;47.982;7.810;2023-02-03T01:11:16;100213.94;;;6.17;100.00
1616;BME280;801;47.982;7.810;2023-02-03T01:13:44;100212.25;;;6.16;100.00
1616;BME280;801;47.982;7.810;2023-02-03T01:16:14;100206.41;;;6.27;100.00
1616;BME280;801;47.982;7.810;2023-02-03T01:18:41;100218.81;;;6.13;100.00
1616;BME280;801;47.982;7.810;2023-02-03T01:21:11;100224.47;;;6.25;100.00
1616;BME280;801;47.982;7.810;2023-02-03T01:23:38;100217.31;;;6.26;100.00
1616;BME280;801;47.982;7.810;2023-02-03T01:26:06;100210.81;;;6.13;100.00
1616;BME280;801;47.982;7.810;2023-02-03T01:28:33;100214.88;;;6.09;100.00
1616;BME280;801;47.982;7.810;2023-02-03T01:31:08;100211.38;;;6.30;100.00
1616;BME280;801;47.982;7.810;2023-02-03T01:33:36;100216.38;;;6.12;100.00
1616;BME280;801;47.982;7.810;2023-02-03T01:36:05;100213.53;;;6.20;100.00
1616;BME280;801;47.982;7.810;2023-02-03T01:38:32;100210.09;;;6.26;100.00
1616;BME280;801;47.982;7.810;2023-02-03T01:40:58;100215.69;;;6.31;100.00
1616;BME280;801;47.982;7.810;2023-02-03T01:43:30;100224.72;;;6.30;100.00
1616;BME280;801;47.982;7.810;2023-02-03T01:45:57;100210.06;;;6.19;100.00
1616;BME280;801;47.982;7.810;2023-02-03T01:48:23;100209.34;;;6.32;100.00
1616;BME280;801;47.982;7.810;2023-02-03T01:50:52;100216.84;;;6.22;100.00
1616;BME280;801;47.982;7.810;2023-02-03T01:53:18;100221.31;;;6.36;100.00
1616;BME280;801;47.982;7.810;2023-02-03T01:55:47;100225.88;;;6.21;100.00
1616;BME280;801;47.982;7.810;2023-02-03T01:58:17;100212.13;;;6.46;100.00
1616;BME280;801;47.982;7.810;2023-02-03T02:00:46;100229.56;;;6.20;100.00
1616;BME280;801;47.982;7.810;2023-02-03T02:03:14;100201.06;;;6.27;100.00
1616;BME280;801;47.982;7.810;2023-02-03T02:05:45;100208.97;;;6.14;100.00
1616;BME280;801;47.982;7.810;2023-02-03T02:08:14;100189.84;;;6.38;100.00
1616;BME280;801;47.982;7.810;2023-02-03T02:10:43;100191.25;;;6.06;100.00
1616;BME280;801;47.982;7.810;2023-02-03T02:13:11;100184.34;;;6.12;100.00
1616;BME280;801;47.982;7.810;2023-02-03T02:15:43;100159.66;;;6.10;100.00
1616;BME280;801;47.982;7.810;2023-02-03T02:18:23;100175.25;;;5.91;100.00
1616;BME280;801;47.982;7.810;2023-02-03T02:21:10;100174.06;;;5.94;100.00
1616;BME280;801;47.982;7.810;2023-02-03T02:23:52;100169.56;;;6.16;100.00
1616;BME280;801;47.982;7.810;2023-02-03T02:26:39;100159.41;;;6.05;100.00
1616;BME280;801;47.982;7.810;2023-02-03T02:29:35;100164.75;;;6.05;100.00
1616;BME280;801;47.982;7.810;2023-02-03T02:32:18;100180.50;;;5.99;100.00
1616;BME280;801;47.982;7.810;2023-02-03T02:34:52;100164.03;;;5.96;100.00
1616;BME280;801;47.982;7.810;2023-02-03T02:37:29;100174.72;;;5.96;100.00
1616;BME280;801;47.982;7.810;2023-02-03T02:40:06;100177.25;;;6.04;100.00
1616;BME280;801;47.982;7.810;2023-02-03T02:42:39;100179.75;;;6.06;100.00
1616;BME280;801;47.982;7.810;2023-02-03T02:45:15;100182.53;;;5.97;100.00
1616;BME280;801;47.982;7.810;2023-02-03T02:47:46;100187.72;;;5.84;100.00
1616;BME280;801;47.982;7.810;2023-02-03T02:50:18;100181.72;;;5.97;100.00
1616;BME280;801;47.982;7.810;2023-02-03T02:52:48;100175.66;;;5.88;100.00
1616;BME280;801;47.982;7.810;2023-02-03T02:55:21;100173.38;;;6.07;100.00
1616;BME280;801;47.982;7.810;2023-02-03T02:57:50;100156.59;;;5.91;100.00
1616;BME280;801;47.982;7.810;2023-02-03T03:00:19;100138.44;;;6.01;100.00
1616;BME280;801;47.982;7.810;2023-02-03T03:02:47;100146.31;;;5.88;100.00
1616;BME280;801;47.982;7.810;2023-02-03T03:05:14;100138.84;;;5.98;100.00
1616;BME280;801;47.982;7.810;2023-02-03T03:07:46;100131.19;;;5.95;100.00
1616;BME280;801;47.982;7.810;2023-02-03T03:10:17;100125.09;;;5.80;100.00
1616;BME280;801;47.982;7.810;2023-02-03T03:12:52;100103.31;;;5.98;100.00
1616;BME280;801;47.982;7.810;2023-02-03T03:15:23;100108.28;;;6.01;100.00
1616;BME280;801;47.982;7.810;2023-02-03T03:17:55;100114.56;;;5.72;100.00
1616;BME280;801;47.982;7.810;2023-02-03T03:20:24;100129.25;;;5.89;100.00
1616;BME280;801;47.982;7.810;2023-02-03T03:22:58;100131.81;;;5.76;100.00
1616;BME280;801;47.982;7.810;2023-02-03T03:25:33;100128.63;;;5.87;100.00
1616;BME280;801;47.982;7.810;2023-02-03T03:28:04;100132.84;;;5.75;100.00
1616;BME280;801;47.982;7.810;2023-02-03T03:30:35;100120.63;;;5.87;100.00
1616;BME280;801;47.982;7.810;2023-02-03T03:33:04;100118.16;;;5.86;100.00
1616;BME280;801;47.982;7.810;2023-02-03T03:35:35;100123.31;;;5.66;100.00
1616;BME280;801;47.982;7.810;2023-02-03T03:38:08;100135.50;;;5.75;100.00
1616;BME280;801;47.982;7.810;2023-02-03T03:40:38;100145.72;;;5.71;100.00
1616;BME280;801;47.982;7.810;2023-02-03T03:43:12;100135.13;;;5.78;100.00
1616;BME280;801;47.982;7.810;2023-02-03T03:45:44;100126.06;;;5.72;100.00
1616;BME280;801;47.982;7.810;2023-02-03T03:48:17;100122.28;;;5.88;100.00
1616;BME280;801;47.982;7.810;2023-02-03T03:50:48;100125.72;;;5.82;100.00
1616;BME280;801;47.982;7.810;2023-02-03T03:53:16;100129.72;;;5.71;100.00
1616;BME280;801;47.982;7.810;2023-02-03T03:55:47;100124.91;;;5.81;100.00
1616;BME280;801;47.982;7.810;2023-02-03T03:58:17;100116.31;;;5.86;100.00
1616;BME280;801;47.982;7.810;2023-02-03T04:00:47;100124.09;;;5.81;100.00
1616;BME280;801;47.982;7.810;2023-02-03T04:03:17;100153.38;;;5.96;100.00
1616;BME280;801;47.982;7.810;2023-02-03T04:05:46;100146.84;;;5.98;100.00
1616;BME280;801;47.982;7.810;2023-02-03T04:08:12;100142.69;;;5.96;100.00
1616;BME280;801;47.982;7.810;2023-02-03T04:10:40;100139.06;;;5.82;100.00
1616;BME280;801;47.982;7.810;2023-02-03T04:13:08;100124.59;;;5.70;100.00
1616;BME280;801;47.982;7.810;2023-02-03T04:15:35;100107.28;;;5.87;100.00
1616;BME280;801;47.982;7.810;2023-02-03T04:18:02;100119.44;;;5.68;100.00
1616;BME280;801;47.982;7.810;2023-02-03T04:20:31;100117.47;;;5.77;100.00
1616;BME280;801;47.982;7.810;2023-02-03T04:22:58;100106.91;;;5.90;100.00
1616;BME280;801;47.982;7.810;2023-02-03T04:25:25;100124.09;;;5.81;100.00
1616;BME280;801;47.982;7.810;2023-02-03T04:27:52;100125.91;;;6.02;100.00
1616;BME280;801;47.982;7.810;2023-02-03T04:30:18;100140.97;;;5.88;100.00
1616;BME280;801;47.982;7.810;2023-02-03T04:32:45;100154.25;;;5.81;100.00
1616;BME280;801;47.982;7.810;2023-02-03T04:35:12;100158.38;;;5.84;100.00
1616;BME280;801;47.982;7.810;2023-02-03T04:37:40;100159.75;;;5.80;100.00
1616;BME280;801;47.982;7.810;2023-02-03T04:40:09;100152.19;;;5.98;100.00
1616;BME280;801;47.982;7.810;2023-02-03T04:42:36;100159.56;;;5.96;100.00
1616;BME280;801;47.982;7.810;2023-02-03T04:45:04;100172.25;;;5.94;100.00
1616;BME280;801;47.982;7.810;2023-02-03T04:47:30;100175.91;;;5.93;100.00
1616;BME280;801;47.982;7.810;2023-02-03T04:49:57;100167.34;;;5.98;100.00
1616;BME280;801;47.982;7.810;2023-02-03T04:52:24;100175.13;;;5.78;100.00
1616;BME280;801;47.982;7.810;2023-02-03T04:54:52;100168.78;;;5.79;100.00
1616;BME280;801;47.982;7.810;2023-02-03T04:57:19;100169.69;;;5.86;100.00
1616;BME280;801;47.982;7.810;2023-02-03T04:59:45;100165.91;;;5.95;100.00
1616;BME280;801;47.982;7.810;2023-02-03T05:02:12;100144.78;;;6.00;100.00
1616;BME280;801;47.982;7.810;2023-02-03T05:04:38;100156.34;;;5.86;100.00
1616;BME280;801;47.982;7.810;2023-02-03T05:07:04;100147.13;;;5.89;100.00
1616;BME280;801;47.982;7.810;2023-02-03T05:09:31;100143.06;;;5.93;100.00
1616;BME280;801;47.982;7.810;2023-02-03T05:11:59;100139.56;;;6.14;100.00
1616;BME280;801;47.982;7.810;2023-02-03T05:14:25;100145.59;;;6.22;100.00
1616;BME280;801;47.982;7.810;2023-02-03T05:16:52;100134.84;;;6.16;100.00
1616;BME280;801;47.982;7.810;2023-02-03T05:19:18;100138.44;;;6.01;100.00
1616;BME280;801;47.982;7.810;2023-02-03T05:21:45;100135.94;;;6.21;100.00
1616;BME280;801;47.982;7.810;2023-02-03T05:24:11;100145.19;;;5.97;100.00
1616;BME280;801;47.982;7.810;2023-02-03T05:26:38;100137.03;;;6.06;100.00
1616;BME280;801;47.982;7.810;2023-02-03T05:29:05;100133.69;;;5.97;100.00
1616;BME280;801;47.982;7.810;2023-02-03T05:31:32;100127.88;;;5.93;100.00
1616;BME280;801;47.982;7.810;2023-02-03T05:33:59;100131.50;;;5.86;100.00
1616;BME280;801;47.982;7.810;2023-02-03T05:36:25;100125.59;;;6.12;100.00
1616;BME280;801;47.982;7.810;2023-02-03T05:38:51;100124.22;;;5.94;100.00
1616;BME280;801;47.982;7.810;2023-02-03T05:41:18;100102.53;;;6.04;100.00
1616;BME280;801;47.982;7.810;2023-02-03T05:44:02;100125.19;;;5.93;100.00
1616;BME280;801;47.982;7.810;2023-02-03T05:46:30;100120.50;;;6.17;100.00
1616;BME280;801;47.982;7.810;2023-02-03T05:48:57;100127.84;;;6.36;100.00
1616;BME280;801;47.982;7.810;2023-02-03T05:51:23;100126.03;;;6.15;100.00
1616;BME280;801;47.982;7.810;2023-02-03T05:53:50;100110.88;;;5.94;100.00
1616;BME280;801;47.982;7.810;2023-02-03T05:56:17;100130.28;;;5.88;100.00
1616;BME280;801;47.982;7.810;2023-02-03T05:58:44;100126.09;;;6.00;100.00
1616;BME280;801;47.982;7.810;2023-02-03T06:01:10;100131.44;;;6.00;100.00
1616;BME280;801;47.982;7.810;2023-02-03T06:03:38;100128.25;;;5.90;100.00
1616;BME280;801;47.982;7.810;2023-02-03T06:06:05;100149.22;;;6.15;100.00
1616;BME280;801;47.982;7.810;2023-02-03T06:08:31;100142.56;;;6.04;100.00
1616;BME280;801;47.982;7.810;2023-02-03T06:10:58;100164.16;;;6.09;100.00
1616;BME280;801;47.982;7.810;2023-02-03T06:13:25;100146.81;;;6.20;100.00
1616;BME280;801;47.982;7.810;2023-02-03T06:15:52;100164.31;;;6.29;100.00
1616;BME280;801;47.982;7.810;2023-02-03T06:18:19;100151.84;;;6.08;100.00
1616;BME280;801;47.982;7.810;2023-02-03T06:20:47;100154.84;;;5.98;100.00
1616;BME280;801;47.982;7.810;2023-02-03T06:23:13;100147.84;;;5.97;100.00
1616;BME280;801;47.982;7.810;2023-02-03T06:25:41;100146.97;;;6.12;100.00
1616;BME280;801;47.982;7.810;2023-02-03T06:28:07;100167.00;;;6.29;100.00
1616;BME280;801;47.982;7.810;2023-02-03T06:30:34;100165.47;;;6.41;100.00
1616;BME280;801;47.982;7.810;2023-02-03T06:33:01;100176.50;;;6.10;100.00
1616;BME280;801;47.982;7.810;2023-02-03T06:35:27;100188.66;;;6.41;100.00
1616;BME280;801;47.982;7.810;2023-02-03T06:37:55;100183.41;;;6.26;100.00
1616;BME280;801;47.982;7.810;2023-02-03T06:40:22;100174.94;;;6.22;100.00
1616;BME280;801;47.982;7.810;2023-02-03T06:42:48;100200.13;;;6.35;100.00
1616;BME280;801;47.982;7.810;2023-02-03T06:45:16;100202.91;;;6.48;100.00
1616;BME280;801;47.982;7.810;2023-02-03T06:47:44;100223.47;;;6.26;100.00
1616;BME280;801;47.982;7.810;2023-02-03T06:50:12;100214.16;;;6.43;100.00
1616;BME280;801;47.982;7.810;2023-02-03T06:52:39;100226.66;;;6.15;100.00
1616;BME280;801;47.982;7.810;2023-02-03T06:55:07;100228.03;;;6.32;100.00
1616;BME280;801;47.982;7.810;2023-02-03T06:57:34;100216.03;;;6.21;100.00
1616;BME280;801;47.982;7.810;2023-02-03T07:00:02;100208.53;;;6.10;100.00
1616;BME280;801;47.982;7.810;2023-02-03T07:02:28;100202.84;;;6.20;100.00
1616;BME280;801;47.982;7.810;2023-02-03T07:04:55;100199.91;;;6.08;100.00
1616;BME280;801;47.982;7.810;2023-02-03T07:07:21;100200.59;;;6.17;100.00
1616;BME280;801;47.982;7.810;2023-02-03T07:09:48;100199.44;;;6.05;100.00
1616;BME280;801;47.982;7.810;2023-02-03T07:12:16;100196.44;;;5.93;100.00
1616;BME280;801;47.982;7.810;2023-02-03T07:14:42;100187.75;;;6.06;100.00
1616;BME280;801;47.982;7.810;2023-02-03T07:17:09;100172.63;;;6.13;100.00
1616;BME280;801;47.982;7.810;2023-02-03T07:19:35;100166.53;;;5.97;100.00
1616;BME280;801;47.982;7.810;2023-02-03T07:22:01;100192.22;;;5.98;100.00
1616;BME280;801;47.982;7.810;2023-02-03T07:24:28;100207.72;;;6.10;100.00
1616;BME280;801;47.982;7.810;2023-02-03T07:26:54;100207.19;;;5.99;100.00
1616;BME280;801;47.982;7.810;2023-02-03T07:29:22;100192.94;;;6.14;100.00
1616;BME280;801;47.982;7.810;2023-02-03T07:31:49;100185.03;;;5.99;100.00
1616;BME280;801;47.982;7.810;2023-02-03T07:34:15;100171.66;;;6.20;100.00
1616;BME280;801;47.982;7.810;2023-02-03T07:36:42;100160.66;;;5.87;100.00
1616;BME280;801;47.982;7.810;2023-02-03T07:39:08;100161.66;;;6.01;100.00
1616;BME280;801;47.982;7.810;2023-02-03T07:41:35;100164.16;;;6.09;100.00
1616;BME280;801;47.982;7.810;2023-02-03T07:44:02;100143.59;;;6.03;100.00
1616;BME280;801;47.982;7.810;2023-02-03T07:46:30;100147.97;;;6.11;100.00
1616;BME280;801;47.982;7.810;2023-02-03T07:48:56;100140.81;;;6.18;100.00
1616;BME280;801;47.982;7.810;2023-02-03T07:51:23;100142.09;;;6.22;100.00
1616;BME280;801;47.982;7.810;2023-02-03T07:53:49;100164.28;;;6.22;100.00
1616;BME280;801;47.982;7.810;2023-02-03T07:56:16;100179.47;;;6.22;100.00
1616;BME280;801;47.982;7.810;2023-02-03T07:58:42;100194.25;;;6.46;100.00
1616;BME280;801;47.982;7.810;2023-02-03T08:01:10;100203.56;;;6.57;100.00
1616;BME280;801;47.982;7.810;2023-02-03T08:03:39;100173.72;;;6.25;100.00
1616;BME280;801;47.982;7.810;2023-02-03T08:06:06;100183.66;;;6.31;100.00
1616;BME280;801;47.982;7.810;2023-02-03T08:08:33;100169.56;;;6.16;100.00
1616;BME280;801;47.982;7.810;2023-02-03T08:11:00;100172.59;;;6.34;100.00
1616;BME280;801;47.982;7.810;2023-02-03T08:13:26;100180.22;;;6.37;100.00
1616;BME280;801;47.982;7.810;2023-02-03T08:15:53;100174.34;;;6.49;100.00
1616;BME280;801;47.982;7.810;2023-02-03T08:18:19;100187.63;;;6.42;100.00
1616;BME280;801;47.982;7.810;2023-02-03T08:20:48;100178.69;;;6.28;100.00
1616;BME280;801;47.982;7.810;2023-02-03T08:23:14;100165.13;;;6.23;100.00
1616;BME280;801;47.982;7.810;2023-02-03T08:25:41;100169.38;;;6.46;100.00
1616;BME280;801;47.982;7.810;2023-02-03T08:28:08;100171.38;;;6.37;100.00
1616;BME280;801;47.982;7.810;2023-02-03T08:30:34;100164.81;;;6.39;100.00
1616;BME280;801;47.982;7.810;2023-02-03T08:33:01;100183.34;;;6.41;100.00
1616;BME280;801;47.982;7.810;2023-02-03T08:35:27;100172.28;;;6.51;100.00
1616;BME280;801;47.982;7.810;2023-02-03T08:37:55;100186.09;;;6.54;100.00
1616;BME280;801;47.982;7.810;2023-02-03T08:40:22;100194.53;;;6.58;100.00
1616;BME280;801;47.982;7.810;2023-02-03T08:42:48;100201.19;;;6.40;100.00
1616;BME280;801;47.982;7.810;2023-02-03T08:45:15;100187.78;;;6.62;100.00
1616;BME280;801;47.982;7.810;2023-02-03T08:47:41;100186.91;;;6.90;100.00
1616;BME280;801;47.982;7.810;2023-02-03T08:50:09;100186.41;;;6.44;100.00
1616;BME280;801;47.982;7.810;2023-02-03T08:52:36;100183.56;;;6.74;100.00
1616;BME280;801;47.982;7.810;2023-02-03T08:55:04;100191.25;;;6.91;100.00
1616;BME280;801;47.982;7.810;2023-02-03T08:57:32;100175.66;;;7.01;100.00
1616;BME280;801;47.982;7.810;2023-02-03T08:59:59;100173.72;;;6.81;100.00
1616;BME280;801;47.982;7.810;2023-02-03T09:02:25;100187.34;;;6.58;100.00
1616;BME280;801;47.982;7.810;2023-02-03T09:04:52;100200.91;;;6.92;100.00
1616;BME280;801;47.982;7.810;2023-02-03T09:07:18;100201.91;;;7.25;100.00
1616;BME280;801;47.982;7.810;2023-02-03T09:09:45;100210.47;;;7.14;100.00
1616;BME280;801;47.982;7.810;2023-02-03T09:12:12;100217.56;;;7.28;100.00
1616;BME280;801;47.982;7.810;2023-02-03T09:14:39;100214.38;;;7.12;100.00
1616;BME280;801;47.982;7.810;2023-02-03T09:17:06;100227.59;;;6.85;100.00
1616;BME280;801;47.982;7.810;2023-02-03T09:19:33;100222.13;;;7.00;100.00
1616;BME280;801;47.982;7.810;2023-02-03T09:21:59;100230.91;;;7.22;100.00
1616;BME280;801;47.982;7.810;2023-02-03T09:24:26;100240.69;;;7.08;100.00
1616;BME280;801;47.982;7.810;2023-02-03T09:26:53;100248.06;;;6.99;100.00
1616;BME280;801;47.982;7.810;2023-02-03T09:29:21;100250.50;;;7.01;100.00
1616;BME280;801;47.982;7.810;2023-02-03T09:31:48;100246.19;;;7.00;100.00
1616;BME280;801;47.982;7.810;2023-02-03T09:34:17;100242.16;;;7.11;100.00
1616;BME280;801;47.982;7.810;2023-02-03T09:36:43;100255.66;;;7.02;100.00
1616;BME280;801;47.982;7.810;2023-02-03T09:39:09;100257.34;;;7.03;100.00
1616;BME280;801;47.982;7.810;2023-02-03T09:41:50;100263.47;;;6.97;100.00
1616;BME280;801;47.982;7.810;2023-02-03T09:44:27;100262.19;;;6.93;100.00
1616;BME280;801;47.982;7.810;2023-02-03T09:46:59;100259.75;;;6.98;100.00
1616;BME280;801;47.982;7.810;2023-02-03T09:49:36;100262.28;;;7.06;100.00
1616;BME280;801;47.982;7.810;2023-02-03T09:52:08;100258.97;;;7.04;100.00
1616;BME280;801;47.982;7.810;2023-02-03T09:54:41;100272.66;;;7.23;100.00
1616;BME280;801;47.982;7.810;2023-02-03T09:57:14;100266.44;;;7.57;100.00
1616;BME280;801;47.982;7.810;2023-02-03T09:59:44;100261.97;;;7.30;100.00
1616;BME280;801;47.982;7.810;2023-02-03T10:02:23;100251.13;;;7.03;100.00
1616;BME280;801;47.982;7.810;2023-02-03T10:04:57;100247.97;;;7.27;100.00
1616;BME280;801;47.982;7.810;2023-02-03T10:07:29;100257.97;;;7.47;100.00
1616;BME280;801;47.982;7.810;2023-02-03T10:10:02;100252.56;;;7.40;100.00
1616;BME280;801;47.982;7.810;2023-02-03T10:12:46;100251.34;;;7.43;100.00
1616;BME280;801;47.982;7.810;2023-02-03T10:15:41;100252.19;;;7.50;100.00
1616;BME280;801;47.982;7.810;2023-02-03T10:18:13;100260.06;;;7.58;100.00
1616;BME280;801;47.982;7.810;2023-02-03T10:20:44;100250.78;;;7.54;100.00
1616;BME280;801;47.982;7.810;2023-02-03T10:23:14;100251.88;;;7.73;100.00
1616;BME280;801;47.982;7.810;2023-02-03T10:25:43;100258.28;;;7.85;100.00
1616;BME280;801;47.982;7.810;2023-02-03T10:28:15;100253.13;;;7.71;100.00
1616;BME280;801;47.982;7.810;2023-02-03T10:30:47;100253.97;;;7.78;100.00
1616;BME280;801;47.982;7.810;2023-02-03T10:33:15;100247.47;;;8.27;100.00
1616;BME280;801;47.982;7.810;2023-02-03T10:35:48;100266.09;;;7.74;100.00
1616;BME280;801;47.982;7.810;2023-02-03T10:38:22;100265.41;;;7.58;100.00
1616;BME280;801;47.982;7.810;2023-02-03T10:40:54;100245.31;;;7.76;100.00
1616;BME280;801;47.982;7.810;2023-02-03T10:43:21;100252.75;;;7.87;100.00
1616;BME280;801;47.982;7.810;2023-02-03T10:46:06;100253.25;;;8.17;100.00
1616;BME280;801;47.982;7.810;2023-02-03T10:48:33;100248.25;;;8.01;100.00
1616;BME280;801;47.982;7.810;2023-02-03T10:51:00;100241.59;;;7.83;100.00
1616;BME280;801;47.982;7.810;2023-02-03T10:53:32;100233.38;;;7.85;100.00
1616;BME280;801;47.982;7.810;2023-02-03T10:56:02;100247.31;;;7.60;100.00
1616;BME280;801;47.982;7.810;2023-02-03T10:58:31;100234.78;;;7.67;100.00
1616;BME280;801;47.982;7.810;2023-02-03T11:01:07;100215.13;;;8.15;100.00
1616;BME280;801;47.982;7.810;2023-02-03T11:03:34;100213.06;;;8.10;100.00
1616;BME280;801;47.982;7.810;2023-02-03T11:06:05;100203.81;;;8.33;100.00
1616;BME280;801;47.982;7.810;2023-02-03T11:08:33;100214.69;;;8.91;100.00
1616;BME280;801;47.982;7.810;2023-02-03T11:11:02;100214.31;;;8.55;100.00
1616;BME280;801;47.982;7.810;2023-02-03T11:13:29;100231.00;;;8.57;100.00
1616;BME280;801;47.982;7.810;2023-02-03T11:15:58;100230.56;;;8.20;100.00
1616;BME280;801;47.982;7.810;2023-02-03T11:18:43;100234.31;;;8.45;100.00
1616;BME280;801;47.982;7.810;2023-02-03T11:21:14;100219.66;;;8.28;100.00
1616;BME280;801;47.982;7.810;2023-02-03T11:23:46;100195.13;;;8.04;100.00
1616;BME280;801;47.982;7.810;2023-02-03T11:26:14;100205.03;;;8.24;100.00
1616;BME280;801;47.982;7.810;2023-02-03T11:28:45;100191.41;;;8.32;100.00
1616;BME280;801;47.982;7.810;2023-02-03T11:31:16;100187.09;;;8.18;100.00
1616;BME280;801;47.982;7.810;2023-02-03T11:33:47;100179.06;;;8.31;100.00
1616;BME280;801;47.982;7.810;2023-02-03T11:36:16;100194.09;;;8.32;100.00
1616;BME280;801;47.982;7.810;2023-02-03T11:38:43;100177.41;;;8.70;100.00
1616;BME280;801;47.982;7.810;2023-02-03T11:41:17;100196.16;;;8.30;100.00
1616;BME280;801;47.982;7.810;2023-02-03T11:43:46;100200.31;;;8.46;100.00
1616;BME280;801;47.982;7.810;2023-02-03T11:46:14;100209.72;;;8.95;100.00
1616;BME280;801;47.982;7.810;2023-02-03T11:48:54;100203.81;;;8.53;100.00
1616;BME280;801;47.982;7.810;2023-02-03T11:51:30;100192.66;;;8.36;100.00
1616;BME280;801;47.982;7.810;2023-02-03T11:54:05;100189.38;;;8.41;100.00
1616;BME280;801;47.982;7.810;2023-02-03T11:56:53;100191.03;;;8.35;100.00
1616;BME280;801;47.982;7.810;2023-02-03T12:02:43;100185.06;;;8.33;100.00
1616;BME280;801;47.982;7.810;2023-02-03T12:05:30;100180.09;;;8.43;100.00
1616;BME280;801;47.982;7.810;2023-02-03T12:08:07;100178.25;;;8.24;100.00
1616;BME280;801;47.982;7.810;2023-02-03T12:10:45;100174.94;;;8.22;100.00
1616;BME280;801;47.982;7.810;2023-02-03T12:13:25;100163.00;;;8.58;100.00
1616;BME280;801;47.982;7.810;2023-02-03T12:16:07;100145.06;;;8.38;100.00
1616;BME280;801;47.982;7.810;2023-02-03T12:18:49;100138.00;;;8.77;100.00
1616;BME280;801;47.982;7.810;2023-02-03T12:21:43;100134.50;;;8.77;100.00
1616;BME280;801;47.982;7.810;2023-02-03T12:24:22;100139.44;;;8.86;100.00
1616;BME280;801;47.982;7.810;2023-02-03T12:26:58;100131.88;;;9.15;100.00
1616;BME280;801;47.982;7.810;2023-02-03T12:29:31;100129.84;;;9.10;100.00
1616;BME280;801;47.982;7.810;2023-02-03T12:32:05;100128.81;;;9.50;100.00
1616;BME280;801;47.982;7.810;2023-02-03T12:34:36;100142.19;;;9.18;100.00
1616;BME280;801;47.982;7.810;2023-02-03T12:37:11;100131.56;;;8.91;100.00
1616;BME280;801;47.982;7.810;2023-02-03T12:39:43;100136.59;;;8.61;100.00
1616;BME280;801;47.982;7.810;2023-02-03T12:42:14;100145.06;;;8.51;100.00
1616;BME280;801;47.982;7.810;2023-02-03T12:44:48;100142.81;;;8.35;100.00
1616;BME280;801;47.982;7.810;2023-02-03T12:47:23;100138.03;;;8.37;100.00
1616;BME280;801;47.982;7.810;2023-02-03T12:49:55;100123.22;;;8.41;100.00
1616;BME280;801;47.982;7.810;2023-02-03T12:52:27;100131.66;;;8.51;100.00
1616;BME280;801;47.982;7.810;2023-02-03T12:55:02;100120.97;;;8.51;100.00
1616;BME280;801;47.982;7.810;2023-02-03T12:57:33;100119.09;;;8.25;100.00
1616;BME280;801;47.982;7.810;2023-02-03T13:00:17;100119.69;;;8.61;100.00
1616;BME280;801;47.982;7.810;2023-02-03T13:02:53;100135.78;;;8.47;100.00
1616;BME280;801;47.982;7.810;2023-02-03T13:05:29;100143.22;;;8.19;100.00
1616;BME280;801;47.982;7.810;2023-02-03T13:08:05;100128.38;;;8.03;100.00
1616;BME280;801;47.982;7.810;2023-02-03T13:10:38;100124.25;;;8.60;100.00
1616;BME280;801;47.982;7.810;2023-02-03T13:13:11;100117.88;;;8.15;100.00
1616;BME280;801;47.982;7.810;2023-02-03T13:15:43;100124.69;;;8.24;100.00
1616;BME280;801;47.982;7.810;2023-02-03T13:18:17;100125.50;;;8.18;100.00
1616;BME280;801;47.982;7.810;2023-02-03T13:20:44;100102.22;;;8.25;100.00
1616;BME280;801;47.982;7.810;2023-02-03T13:23:13;100114.34;;;8.34;100.00
1616;BME280;801;47.982;7.810;2023-02-03T13:25:49;100102.00;;;8.46;100.00
1616;BME280;801;47.982;7.810;2023-02-03T13:28:28;100102.63;;;8.22;100.00
1616;BME280;801;47.982;7.810;2023-02-03T13:31:14;100113.97;;;8.10;100.00
1616;BME280;801;47.982;7.810;2023-02-03T13:33:52;100099.13;;;8.08;100.00
1616;BME280;801;47.982;7.810;2023-02-03T13:37:02;100116.44;;;8.19;100.00
1616;BME280;801;47.982;7.810;2023-02-03T13:39:44;100113.13;;;8.03;100.00